Time;durP1;ratioP1;P1;durP2;ratioP2;P2;SDS_P1;SDS_P2;PMS_P1;PMS_P2;Temp;Humidity;BMP_temperature;BMP_pressure;BME280_temperature;BME280_humidity;BME280_pressure;Samples;Min_cycle;Max_cycle;Signal;HPM_P1;HPM_P2
2022/03/15 00:02:07;;;;;;;27.65;14.20;;;;;;;4.17;100.00;101957.47;5279641;28;20489;-78
2022/03/15 00:04:37;;;;;;;30.05;15.25;;;;;;;4.21;100.00;101954.06;5258628;28;20431;-78
2022/03/15 00:07:13;;;;;;;28.33;15.18;;;;;;;4.13;100.00;101960.84;5269145;28;20538;-78
2022/03/15 00:09:44;;;;;;;27.88;14.65;;;;;;;4.11;100.00;101954.78;5271905;28;20077;-78
2022/03/15 00:12:14;;;;;;;29.35;15.13;;;;;;;4.15;100.00;101964.31;5274593;28;20481;-78
2022/03/15 00:14:44;;;;;;;29.00;15.68;;;;;;;4.16;100.00;101963.47;5265713;28;20031;-78
2022/03/15 00:17:15;;;;;;;32.10;16.48;;;;;;;4.16;100.00;101967.78;5273870;28;20023;-78
2022/03/15 00:19:45;;;;;;;28.90;15.80;;;;;;;4.37;100.00;101975.81;5277133;28;20066;-78
2022/03/15 00:22:16;;;;;;;33.22;16.27;;;;;;;4.38;100.00;101978.41;5257708;28;20110;-78
2022/03/15 00:24:47;;;;;;;27.80;14.57;;;;;;;4.40;100.00;101981.00;5273426;28;20032;-78
2022/03/15 00:27:17;;;;;;;27.05;14.52;;;;;;;4.28;100.00;101976.56;5278422;28;20036;-78
2022/03/15 00:29:48;;;;;;;28.33;13.90;;;;;;;4.16;100.00;101985.91;5272505;28;20070;-78
2022/03/15 00:32:19;;;;;;;28.13;14.52;;;;;;;4.22;100.00;101981.69;5275164;28;20032;-78
2022/03/15 00:34:50;;;;;;;28.42;14.27;;;;;;;4.10;100.00;101981.50;5273958;28;20027;-78
2022/03/15 00:37:21;;;;;;;28.70;14.10;;;;;;;4.03;100.00;101986.56;5278245;28;20505;-78
2022/03/15 00:39:51;;;;;;;25.65;14.32;;;;;;;3.96;100.00;101997.69;5268809;28;20038;-78
2022/03/15 00:42:21;;;;;;;28.00;14.57;;;;;;;3.96;100.00;101995.13;5265537;28;20053;-78
2022/03/15 00:44:52;;;;;;;24.90;14.02;;;;;;;3.81;100.00;102003.50;5273562;28;20050;-78
2022/03/15 00:47:22;;;;;;;27.90;14.98;;;;;;;3.77;100.00;101996.56;5274125;28;20040;-78
2022/03/15 00:49:52;;;;;;;25.85;13.20;;;;;;;3.81;100.00;101998.34;5273967;28;20023;-78
2022/03/15 00:52:22;;;;;;;25.98;13.75;;;;;;;3.79;100.00;102000.03;5272669;28;20028;-78
2022/03/15 00:54:53;;;;;;;27.00;13.38;;;;;;;3.82;100.00;102002.66;5278014;28;20077;-78
2022/03/15 00:57:23;;;;;;;23.05;12.75;;;;;;;3.81;100.00;102008.69;5274281;28;20070;-78
2022/03/15 00:59:55;;;;;;;23.15;13.15;;;;;;;3.94;100.00;102015.78;5277898;28;20031;-78
2022/03/15 01:02:25;;;;;;;23.55;12.98;;;;;;;3.78;100.00;102013.81;5260366;28;20062;-78
2022/03/15 01:04:55;;;;;;;25.10;13.43;;;;;;;3.74;100.00;102021.50;5274079;28;20525;-78
2022/03/15 01:07:26;;;;;;;27.75;14.40;;;;;;;3.67;100.00;102011.91;5277076;28;20062;-78
2022/03/15 01:09:56;;;;;;;28.83;15.25;;;;;;;3.78;100.00;102018.97;5242989;28;20024;-78
2022/03/15 01:12:26;;;;;;;30.95;15.90;;;;;;;3.78;100.00;102024.16;5249340;28;20034;-78
2022/03/15 01:14:57;;;;;;;28.17;15.10;;;;;;;3.80;100.00;102022.44;5254553;28;20469;-78
2022/03/15 01:17:27;;;;;;;31.42;15.27;;;;;;;3.81;100.00;102029.38;5268337;28;20115;-78
2022/03/15 01:19:57;;;;;;;28.90;14.57;;;;;;;3.78;100.00;102031.06;5276946;28;20038;-78
2022/03/15 01:22:28;;;;;;;29.85;14.65;;;;;;;3.69;100.00;102026.63;5273371;28;20080;-78
2022/03/15 01:24:58;;;;;;;33.30;15.43;;;;;;;3.78;100.00;102024.16;5264834;28;20035;-78
2022/03/15 01:27:28;;;;;;;26.70;14.55;;;;;;;3.80;100.00;102032.78;5282182;28;20081;-78
2022/03/15 01:29:58;;;;;;;26.60;14.43;;;;;;;3.60;100.00;102034.22;5273254;28;20087;-78
2022/03/15 01:32:29;;;;;;;28.52;15.23;;;;;;;3.56;100.00;102034.13;5277604;28;20031;-78
2022/03/15 01:34:59;;;;;;;29.17;14.27;;;;;;;3.61;100.00;102025.59;5273624;28;20031;-78
2022/03/15 01:37:29;;;;;;;30.33;14.30;;;;;;;3.69;100.00;102031.78;5269435;28;20533;-78
2022/03/15 01:40:00;;;;;;;29.10;14.30;;;;;;;3.52;100.00;102034.94;5249423;28;20024;-78
2022/03/15 01:42:30;;;;;;;28.42;14.80;;;;;;;3.61;100.00;102037.69;5269227;28;20063;-78
2022/03/15 01:45:03;;;;;;;26.67;13.52;;;;;;;3.44;100.00;102039.13;5273333;28;20032;-78
2022/03/15 01:47:34;;;;;;;25.45;13.55;;;;;;;3.40;100.00;102032.13;5258566;28;20057;-78
2022/03/15 01:50:05;;;;;;;29.67;14.93;;;;;;;3.48;100.00;102032.28;5270122;28;20028;-78
2022/03/15 01:52:35;;;;;;;25.27;13.43;;;;;;;3.43;100.00;102036.50;5276623;28;20023;-78
2022/03/15 01:55:06;;;;;;;28.88;14.55;;;;;;;3.33;100.00;102029.47;5277096;28;20039;-78
2022/03/15 01:57:36;;;;;;;32.17;14.75;;;;;;;3.23;100.00;102036.16;5281543;28;20032;-78
2022/03/15 02:00:08;;;;;;;31.15;14.38;;;;;;;3.10;100.00;102030.75;5273410;28;20034;-78
2022/03/15 02:02:38;;;;;;;31.30;14.98;;;;;;;3.15;100.00;102032.59;5277939;28;20042;-78
2022/03/15 02:05:10;;;;;;;29.48;15.32;;;;;;;3.07;100.00;102025.53;5273669;28;20115;-78
2022/03/15 02:07:40;;;;;;;27.00;13.73;;;;;;;3.11;100.00;102020.47;5274269;28;20618;-78
2022/03/15 02:10:11;;;;;;;32.45;15.32;;;;;;;3.13;100.00;102023.06;5247577;28;20102;-78
2022/03/15 02:12:41;;;;;;;30.00;14.63;;;;;;;3.13;100.00;102023.06;5266237;28;20056;-78
2022/03/15 02:15:11;;;;;;;34.03;15.13;;;;;;;3.21;100.00;102016.31;5273558;28;20035;-78
2022/03/15 02:17:42;;;;;;;32.53;15.40;;;;;;;3.08;100.00;102014.38;5253277;28;20036;-78
2022/03/15 02:20:12;;;;;;;30.00;14.98;;;;;;;3.10;100.00;102008.41;5277938;28;20124;-78
2022/03/15 02:22:42;;;;;;;29.25;14.40;;;;;;;3.12;100.00;102013.56;5277177;28;20107;-78
2022/03/15 02:25:13;;;;;;;32.05;15.77;;;;;;;3.28;100.00;102013.00;5271120;28;20032;-78
2022/03/15 02:27:43;;;;;;;30.77;14.85;;;;;;;3.14;100.00;102024.78;5273754;28;20099;-78
2022/03/15 02:30:14;;;;;;;33.45;15.77;;;;;;;3.13;100.00;102018.78;5273165;28;20035;-78
2022/03/15 02:32:47;;;;;;;32.05;15.82;;;;;;;3.10;100.00;102028.19;5277140;28;20056;-78
2022/03/15 02:35:18;;;;;;;33.72;15.85;;;;;;;3.14;100.00;102023.09;5255431;28;20032;-78
2022/03/15 02:37:48;;;;;;;33.20;16.80;;;;;;;3.19;100.00;102023.19;5281140;28;20366;-78
2022/03/15 02:40:18;;;;;;;32.35;15.73;;;;;;;3.23;100.00;102019.81;5300527;22;20489;-80
2022/03/15 02:42:49;;;;;;;36.50;17.33;;;;;;;3.24;100.00;102000.88;5263656;28;20028;-80
2022/03/15 02:45:19;;;;;;;28.80;15.20;;;;;;;2.49;100.00;102000.34;5277815;28;20144;-79
2022/03/15 02:47:49;;;;;;;27.95;14.13;;;;;;;2.60;100.00;101998.88;5260744;28;20035;-80
2022/03/15 02:50:20;;;;;;;28.70;14.05;;;;;;;2.61;100.00;101989.41;5263301;28;20034;-79
2022/03/15 02:52:50;;;;;;;30.27;14.00;;;;;;;2.64;100.00;102002.34;5276345;28;20412;-78
2022/03/15 02:55:20;;;;;;;27.23;14.05;;;;;;;2.63;100.00;101992.88;5260419;28;20031;-79
2022/03/15 02:57:51;;;;;;;29.83;14.55;;;;;;;2.78;100.00;101985.41;5263069;28;20104;-80
2022/03/15 03:00:22;;;;;;;27.90;13.80;;;;;;;2.96;100.00;101989.22;5260723;28;20024;-80
2022/03/15 03:02:56;;;;;;;32.53;13.73;;;;;;;2.96;100.00;101990.91;5280572;28;20029;-80
2022/03/15 03:05:26;;;;;;;26.40;13.00;;;;;;;2.77;100.00;101989.72;5259700;28;20028;-80
2022/03/15 03:07:56;;;;;;;27.75;13.95;;;;;;;2.88;100.00;101995.09;5279397;28;20491;-79
2022/03/15 03:10:26;;;;;;;27.33;14.18;;;;;;;2.65;100.00;101980.91;5267887;28;20051;-79
2022/03/15 03:12:57;;;;;;;24.88;13.48;;;;;;;2.66;100.00;101982.63;5274642;28;20078;-79
2022/03/15 03:15:27;;;;;;;27.42;13.65;;;;;;;2.74;100.00;101988.78;5259213;28;20020;-79
2022/03/15 03:17:57;;;;;;;26.77;14.10;;;;;;;2.92;100.00;101997.75;5254678;28;20024;-80
2022/03/15 03:20:29;;;;;;;25.65;14.18;;;;;;;2.75;100.00;101994.00;5281926;28;20385;-79
2022/03/15 03:22:59;;;;;;;24.95;13.63;;;;;;;2.67;100.00;101987.81;5276154;28;20032;-79
2022/03/15 03:25:31;;;;;;;27.35;13.75;;;;;;;2.62;100.00;101988.56;5281388;28;20036;-80
2022/03/15 03:28:03;;;;;;;27.95;13.93;;;;;;;2.61;100.00;101994.56;5259018;28;20410;-79
2022/03/15 03:30:37;;;;;;;28.83;13.93;;;;;;;2.77;100.00;101994.00;5262557;28;20348;-80
2022/03/15 03:33:07;;;;;;;29.23;14.73;;;;;;;2.66;100.00;101987.78;5259161;28;20747;-80
2022/03/15 03:35:38;;;;;;;31.55;14.88;;;;;;;2.58;100.00;101994.50;5260870;28;20024;-80
2022/03/15 03:38:10;;;;;;;27.65;13.68;;;;;;;2.60;100.00;101985.06;5276147;28;20496;-79
2022/03/15 03:40:40;;;;;;;27.45;14.25;;;;;;;2.66;100.00;101990.38;5267825;28;20056;-80
2022/03/15 03:43:10;;;;;;;27.45;13.70;;;;;;;2.65;100.00;101986.06;5274993;28;20024;-81
2022/03/15 03:45:41;;;;;;;27.00;13.90;;;;;;;2.75;100.00;101982.78;5260972;28;20027;-82
2022/03/15 03:48:12;;;;;;;26.27;13.38;;;;;;;2.69;100.00;101982.69;5256936;28;20335;-80
2022/03/15 03:50:43;;;;;;;27.42;12.85;;;;;;;2.49;100.00;101991.75;5260505;28;20027;-79
2022/03/15 03:53:14;;;;;;;26.15;12.88;;;;;;;2.52;100.00;101986.66;5273264;28;20320;-80
2022/03/15 03:55:45;;;;;;;24.15;12.63;;;;;;;2.49;100.00;101981.44;5260487;28;20035;-81
2022/03/15 03:58:15;;;;;;;25.70;13.00;;;;;;;2.57;100.00;101975.59;5278147;28;20020;-81
2022/03/15 04:00:45;;;;;;;26.55;13.43;;;;;;;2.59;100.00;101983.34;5279515;28;20059;-81
2022/03/15 04:03:17;;;;;;;26.45;12.02;;;;;;;2.46;100.00;101978.78;5276948;28;20027;-82
2022/03/15 04:05:48;;;;;;;24.27;11.50;;;;;;;2.45;100.00;101984.78;5260805;28;20070;-81
2022/03/15 04:08:18;;;;;;;25.42;13.18;;;;;;;2.56;100.00;101971.28;5256681;28;20493;-79
2022/03/15 04:10:50;;;;;;;26.63;13.05;;;;;;;2.51;100.00;101969.44;5248128;28;20442;-79
2022/03/15 04:13:20;;;;;;;27.80;12.90;;;;;;;2.50;100.00;101970.28;5278863;28;20036;-81
2022/03/15 04:15:51;;;;;;;25.48;13.82;;;;;;;2.51;100.00;101972.88;5277268;28;20034;-78
2022/03/15 04:18:21;;;;;;;26.83;13.73;;;;;;;2.72;100.00;101970.69;5278914;28;20123;-81
2022/03/15 04:20:52;;;;;;;26.75;14.07;;;;;;;2.65;100.00;101975.72;5277045;28;20512;-80
2022/03/15 04:23:22;;;;;;;25.83;13.57;;;;;;;2.75;100.00;101975.03;5260869;28;20030;-79
2022/03/15 04:25:53;;;;;;;25.00;13.80;;;;;;;2.38;100.00;101976.09;5276456;28;20024;-79
2022/03/15 04:28:23;;;;;;;28.38;13.57;;;;;;;2.56;100.00;101978.13;5278475;28;20023;-80
2022/03/15 04:30:53;;;;;;;24.27;13.63;;;;;;;2.40;100.00;101974.41;5276589;28;20043;-82
2022/03/15 04:33:24;;;;;;;32.35;14.45;;;;;;;2.52;100.00;101969.44;5260364;28;20042;-80
2022/03/15 04:35:54;;;;;;;29.55;14.50;;;;;;;2.65;100.00;101966.25;5276830;28;20306;-79
2022/03/15 04:38:24;;;;;;;34.17;15.38;;;;;;;2.74;100.00;101970.72;5275573;28;20402;-79
2022/03/15 04:40:55;;;;;;;28.92;14.88;;;;;;;2.63;100.00;101961.91;5247562;28;20385;-82
2022/03/15 04:43:25;;;;;;;29.23;14.77;;;;;;;2.58;100.00;101966.13;5278752;28;20488;-81
2022/03/15 04:45:55;;;;;;;31.17;15.30;;;;;;;2.59;100.00;101966.16;5275111;28;20038;-80
2022/03/15 04:48:26;;;;;;;32.85;15.23;;;;;;;2.67;100.00;101966.31;5260264;28;20034;-80
2022/03/15 04:50:57;;;;;;;34.13;15.10;;;;;;;2.78;100.00;101962.19;5275206;28;20043;-81
2022/03/15 04:53:27;;;;;;;31.80;14.93;;;;;;;2.77;100.00;101956.16;5274538;28;20031;-80
2022/03/15 04:55:57;;;;;;;29.45;13.95;;;;;;;2.64;100.00;101954.22;5258294;28;20023;-79
2022/03/15 04:58:28;;;;;;;29.63;14.20;;;;;;;2.72;100.00;101951.75;5256006;28;20039;-81
2022/03/15 05:00:58;;;;;;;29.35;13.60;;;;;;;2.63;100.00;101956.75;5275841;28;20026;-82
2022/03/15 05:03:28;;;;;;;26.38;13.63;;;;;;;2.74;100.00;101952.66;5253416;28;20414;-81
2022/03/15 05:05:59;;;;;;;28.38;13.95;;;;;;;2.71;100.00;101950.88;5275476;28;20116;-82
2022/03/15 05:08:30;;;;;;;29.38;14.98;;;;;;;2.87;100.00;101952.03;5270311;28;20036;-81
2022/03/15 05:11:06;;;;;;;29.17;14.40;;;;;;;2.95;100.00;101953.03;5269056;28;20031;-82
2022/03/15 05:13:41;;;;;;;29.70;14.77;;;;;;;2.76;100.00;101963.88;5274112;28;20058;-82
2022/03/15 05:16:17;;;;;;;30.42;14.98;;;;;;;2.65;100.00;101960.25;5274609;28;20488;-81
2022/03/15 05:18:54;;;;;;;29.58;14.60;;;;;;;2.64;100.00;101959.38;5278329;28;20778;-80
2022/03/15 05:21:27;;;;;;;31.38;15.23;;;;;;;2.61;100.00;101961.00;5257417;28;20502;-81
2022/03/15 05:23:57;;;;;;;32.58;15.50;;;;;;;2.59;100.00;101954.97;5279662;28;20037;-82
2022/03/15 05:26:28;;;;;;;33.20;15.85;;;;;;;2.64;100.00;101958.47;5274878;28;20568;-81
2022/03/15 05:28:58;;;;;;;34.35;16.65;;;;;;;2.74;100.00;101962.97;5280054;28;20481;-82
2022/03/15 05:31:29;;;;;;;35.83;16.83;;;;;;;2.79;100.00;101963.91;5255287;28;20054;-82
2022/03/15 05:33:59;;;;;;;34.35;16.92;;;;;;;2.89;100.00;101960.69;5257657;28;20448;-81
2022/03/15 05:36:29;;;;;;;36.83;17.15;;;;;;;3.16;100.00;101966.31;5261445;28;20024;-81
2022/03/15 05:39:00;;;;;;;35.03;17.52;;;;;;;3.15;100.00;101954.22;5278957;28;20027;-82
2022/03/15 05:41:30;;;;;;;35.13;17.35;;;;;;;2.92;100.00;101956.44;5264215;28;20032;-81
2022/03/15 05:44:01;;;;;;;31.20;16.63;;;;;;;2.92;100.00;101966.78;5260105;28;20378;-79
2022/03/15 05:46:31;;;;;;;33.95;16.48;;;;;;;3.06;100.00;101969.56;5268897;28;20035;-79
2022/03/15 05:49:01;;;;;;;32.70;16.48;;;;;;;2.89;100.00;101965.84;5260465;28;20502;-80
2022/03/15 05:51:32;;;;;;;32.00;16.17;;;;;;;2.75;100.00;101973.34;5252915;28;20030;-80
2022/03/15 05:54:02;;;;;;;34.92;16.27;;;;;;;2.79;100.00;101974.25;5256820;28;20024;-81
2022/03/15 05:56:34;;;;;;;32.83;16.17;;;;;;;2.79;100.00;101972.56;5271828;28;20028;-79
2022/03/15 05:59:04;;;;;;;33.38;15.77;;;;;;;2.87;100.00;101972.69;5248803;28;20508;-80
2022/03/15 06:01:34;;;;;;;34.60;17.15;;;;;;;2.87;100.00;101968.38;5276193;28;20028;-80
2022/03/15 06:04:05;;;;;;;34.15;17.23;;;;;;;2.78;100.00;101972.50;5253066;28;20313;-80
2022/03/15 06:06:36;;;;;;;38.80;17.35;;;;;;;2.97;100.00;101966.81;5275512;28;20028;-79
2022/03/15 06:09:06;;;;;;;35.22;17.00;;;;;;;3.17;100.00;101968.91;5273999;28;20024;-80
2022/03/15 06:11:39;;;;;;;32.45;16.88;;;;;;;2.86;100.00;101976.97;5257351;28;20115;-80
2022/03/15 06:14:09;;;;;;;33.38;16.30;;;;;;;2.95;100.00;101973.69;5256879;28;20546;-80
2022/03/15 06:16:39;;;;;;;33.92;16.17;;;;;;;3.17;100.00;101973.22;5279964;28;20079;-81
2022/03/15 06:19:09;;;;;;;36.28;17.67;;;;;;;3.22;100.00;101979.31;5261598;28;20093;-80
2022/03/15 06:21:40;;;;;;;30.30;15.27;;;;;;;3.25;100.00;101976.78;5261584;28;20435;-81
2022/03/15 06:24:10;;;;;;;33.53;16.50;;;;;;;3.24;100.00;101973.34;5274450;28;20077;-82
2022/03/15 06:26:42;;;;;;;34.30;15.75;;;;;;;3.23;100.00;101976.75;5278454;28;20059;-81
2022/03/15 06:29:12;;;;;;;32.75;15.77;;;;;;;3.10;100.00;101976.53;5262624;28;20074;-83
2022/03/15 06:31:43;;;;;;;33.45;16.15;;;;;;;3.17;100.00;101968.06;5259085;28;20063;-83
2022/03/15 06:34:13;;;;;;;35.58;16.58;;;;;;;3.28;100.00;101967.38;5272521;28;20511;-82
2022/03/15 06:36:44;;;;;;;32.08;15.55;;;;;;;3.43;100.00;101971.91;5279462;28;20066;-81
2022/03/15 06:39:14;;;;;;;33.72;16.50;;;;;;;3.61;100.00;101963.56;5255850;28;20057;-80
2022/03/15 06:41:44;;;;;;;37.92;17.02;;;;;;;3.68;100.00;101956.78;5256628;28;20031;-80
2022/03/15 06:44:15;;;;;;;34.35;16.98;;;;;;;3.81;100.00;101956.97;5262252;28;20030;-80
2022/03/15 06:46:46;;;;;;;34.45;16.50;;;;;;;3.95;100.00;101964.94;5261107;28;20031;-83
2022/03/15 06:49:16;;;;;;;36.45;17.63;;;;;;;4.15;100.00;101966.91;5280572;28;20020;-81
2022/03/15 06:51:46;;;;;;;33.97;16.77;;;;;;;4.44;100.00;101968.13;5277031;28;20480;-79
2022/03/15 06:54:17;;;;;;;30.50;16.10;;;;;;;4.50;100.00;101967.34;5278194;28;20020;-84
2022/03/15 06:56:49;;;;;;;30.90;16.33;;;;;;;4.71;100.00;101965.84;5261950;28;20496;-82
2022/03/15 06:59:20;;;;;;;33.25;16.52;;;;;;;4.45;100.00;101969.88;5260546;28;20032;-83
2022/03/15 07:01:50;;;;;;;34.15;16.70;;;;;;;4.38;100.00;101968.06;5256708;28;20031;-80
2022/03/15 07:04:21;;;;;;;32.22;17.30;;;;;;;4.23;100.00;101965.31;5274440;28;20023;-83
2022/03/15 07:06:51;;;;;;;34.15;16.65;;;;;;;4.41;100.00;101962.03;5255576;28;20030;-82
2022/03/15 07:09:21;;;;;;;31.52;16.52;;;;;;;4.55;100.00;101961.38;5272929;28;20024;-81
2022/03/15 07:11:51;;;;;;;33.75;16.77;;;;;;;4.77;100.00;101958.13;5256198;28;20052;-80
2022/03/15 07:14:22;;;;;;;35.65;17.08;;;;;;;4.88;100.00;101953.94;5260887;28;20038;-80
2022/03/15 07:16:52;;;;;;;37.53;17.75;;;;;;;5.04;100.00;101953.22;5279019;28;20094;-80
2022/03/15 07:19:22;;;;;;;37.45;18.45;;;;;;;5.49;100.00;101950.97;5274407;28;20035;-80
2022/03/15 07:21:53;;;;;;;33.72;17.20;;;;;;;5.84;100.00;101954.69;5262216;28;20032;-81
2022/03/15 07:24:24;;;;;;;32.45;17.27;;;;;;;5.77;100.00;101950.31;5258251;28;20481;-81
2022/03/15 07:26:54;;;;;;;37.10;17.15;;;;;;;6.06;100.00;101953.97;5262709;28;20058;-80
2022/03/15 07:29:24;;;;;;;29.92;16.25;;;;;;;6.29;100.00;101947.97;5260057;28;20522;-80
2022/03/15 07:31:55;;;;;;;33.70;17.35;;;;;;;6.50;100.00;101947.19;5259070;28;20069;-80
2022/03/15 07:34:26;;;;;;;32.38;16.45;;;;;;;6.50;100.00;101945.47;5274399;28;20118;-81
2022/03/15 07:36:56;;;;;;;34.25;16.83;;;;;;;6.83;100.00;101936.88;5277664;28;20055;-80
2022/03/15 07:39:27;;;;;;;31.02;16.80;;;;;;;7.19;100.00;101939.47;5259553;28;20032;-81
2022/03/15 07:41:57;;;;;;;30.33;16.75;;;;;;;7.19;100.00;101940.38;5276549;28;20084;-82
2022/03/15 07:44:27;;;;;;;31.27;16.48;;;;;;;7.75;100.00;101931.63;5276798;28;20024;-83
2022/03/15 07:46:58;;;;;;;33.20;17.00;;;;;;;7.67;100.00;101928.16;5259707;28;20088;-81
2022/03/15 07:49:28;;;;;;;30.67;17.00;;;;;;;8.14;100.00;101934.09;5264231;28;20027;-79
2022/03/15 07:51:59;;;;;;;31.77;17.02;;;;;;;8.46;100.00;101929.63;5255300;28;20054;-77
2022/03/15 07:54:29;;;;;;;27.10;15.48;;;;;;;8.63;100.00;101927.78;5280814;28;20515;-80
2022/03/15 07:56:59;;;;;;;29.95;15.80;;;;;;;8.79;100.00;101923.34;5262799;28;20016;-77
2022/03/15 07:59:30;;;;;;;30.05;15.93;;;;;;;9.02;100.00;101922.28;5267071;28;20032;-82
2022/03/15 08:02:00;;;;;;;29.45;15.40;;;;;;;9.27;100.00;101919.47;5256402;28;20039;-82
2022/03/15 08:04:30;;;;;;;28.67;15.73;;;;;;;9.55;100.00;101920.06;5255547;28;20059;-82
2022/03/15 08:07:01;;;;;;;29.17;16.33;;;;;;;9.51;100.00;101915.78;5282142;28;20059;-81
2022/03/15 08:09:31;;;;;;;28.75;15.38;;;;;;;9.48;100.00;101919.28;5280088;28;20019;-78
2022/03/15 08:12:02;;;;;;;29.73;15.85;;;;;;;9.61;100.00;101917.41;5258818;28;20031;-80
2022/03/15 08:14:32;;;;;;;26.75;15.48;;;;;;;9.54;100.00;101918.34;5259239;28;20085;-82
2022/03/15 08:17:03;;;;;;;30.05;16.25;;;;;;;9.64;100.00;101922.63;5262856;28;20034;-81
2022/03/15 08:19:33;;;;;;;25.92;14.73;;;;;;;9.90;100.00;101915.34;5255667;28;20092;-80
2022/03/15 08:22:05;;;;;;;29.27;16.50;;;;;;;10.03;100.00;101922.19;5259155;28;20020;-77
2022/03/15 08:24:35;;;;;;;26.67;15.30;;;;;;;9.90;100.00;101917.97;5277244;28;20020;-81
2022/03/15 08:27:05;;;;;;;29.40;15.95;;;;;;;10.02;100.00;101917.84;5256785;28;20111;-81
2022/03/15 08:29:35;;;;;;;25.30;15.32;;;;;;;10.19;100.00;101923.75;5276779;28;20027;-80
2022/03/15 08:32:06;;;;;;;27.00;14.68;;;;;;;10.23;100.00;101917.59;5250881;28;20035;-78
2022/03/15 08:34:37;;;;;;;29.25;15.70;;;;;;;10.65;100.00;101909.19;5271141;28;20095;-80
2022/03/15 08:37:09;;;;;;;27.77;15.80;;;;;;;10.63;100.00;101909.19;5259142;28;20012;-80
2022/03/15 08:39:39;;;;;;;25.85;15.65;;;;;;;10.47;100.00;101906.78;5257670;28;20657;-80
2022/03/15 08:42:09;;;;;;;30.02;15.18;;;;;;;10.19;100.00;101913.28;5265937;28;20032;-80
2022/03/15 08:44:41;;;;;;;29.23;16.83;;;;;;;10.17;100.00;101918.53;5274365;28;20063;-79
2022/03/15 08:47:12;;;;;;;28.42;16.23;;;;;;;10.35;100.00;101901.75;5278350;28;20024;-79
2022/03/15 08:49:43;;;;;;;26.63;15.13;;;;;;;10.60;100.00;101906.63;5276975;28;20028;-80
2022/03/15 08:52:14;;;;;;;25.92;15.82;;;;;;;10.85;100.00;101905.34;5276591;28;20020;-79
2022/03/15 08:54:44;;;;;;;25.55;15.25;;;;;;;10.54;100.00;101906.69;5276989;28;20027;-80
2022/03/15 08:57:15;;;;;;;27.77;16.00;;;;;;;10.80;100.00;101907.19;5259124;28;20024;-81
2022/03/15 08:59:45;;;;;;;28.30;16.08;;;;;;;10.88;100.00;101909.69;5256961;28;20034;-81
2022/03/15 09:02:17;;;;;;;27.25;16.95;;;;;;;11.15;100.00;101897.91;5272770;28;20094;-80
2022/03/15 09:04:48;;;;;;;28.35;15.45;;;;;;;11.36;99.03;101905.38;5269122;28;20035;-81
2022/03/15 09:07:18;;;;;;;28.42;16.15;;;;;;;11.32;98.20;101903.72;5276981;28;20023;-80
2022/03/15 09:09:48;;;;;;;27.27;16.92;;;;;;;11.40;99.04;101899.19;5252341;28;20034;-80
2022/03/15 09:12:20;;;;;;;27.02;16.15;;;;;;;11.51;100.00;101899.88;5275549;28;20393;-80
2022/03/15 09:14:51;;;;;;;27.55;15.60;;;;;;;11.27;96.20;101896.81;5278863;28;20550;-80
2022/03/15 09:17:21;;;;;;;25.50;15.88;;;;;;;11.36;99.46;101891.41;5259401;28;20019;-80
2022/03/15 09:19:51;;;;;;;29.58;16.17;;;;;;;11.52;99.22;101885.88;5270944;28;20027;-81
2022/03/15 09:22:22;;;;;;;28.05;16.95;;;;;;;11.49;98.66;101882.44;5270876;28;20023;-81
2022/03/15 09:24:52;;;;;;;28.40;16.30;;;;;;;11.47;100.00;101884.25;5254046;28;20026;-83
2022/03/15 09:31:08;;;;;;;28.98;15.88;;;;;;;10.89;100.00;101874.78;5242112;28;20121;-81
2022/03/15 09:33:38;;;;;;;38.22;23.40;;;;;;;10.59;100.00;101855.22;5255690;28;20088;-83
2022/03/15 09:36:09;;;;;;;30.23;18.42;;;;;;;10.77;100.00;101851.44;5269225;28;20024;-82
2022/03/15 09:38:40;;;;;;;33.13;17.27;;;;;;;10.89;100.00;101848.63;5248725;28;20097;-83
2022/03/15 09:41:10;;;;;;;27.58;16.70;;;;;;;11.06;100.00;101839.59;5249022;28;20038;-83
2022/03/15 09:43:45;;;;;;;27.73;16.52;;;;;;;11.12;100.00;101842.97;5264875;28;20496;-80
2022/03/15 09:46:17;;;;;;;29.95;17.05;;;;;;;10.85;100.00;101836.50;5267273;28;20031;-79
2022/03/15 09:48:58;;;;;;;30.77;17.30;;;;;;;11.10;100.00;101831.69;5251185;28;20077;-80
2022/03/15 09:51:32;;;;;;;30.30;17.70;;;;;;;11.29;100.00;101830.44;5252078;28;20024;-80
2022/03/15 09:54:06;;;;;;;32.58;17.23;;;;;;;11.37;100.00;101828.56;5268531;28;20504;-84
2022/03/15 09:56:40;;;;;;;31.00;17.50;;;;;;;11.47;100.00;101819.63;5253209;28;20035;-78
2022/03/15 09:59:18;;;;;;;27.83;16.52;;;;;;;11.32;100.00;101819.94;5260716;28;20621;-80
2022/03/15 10:01:51;;;;;;;30.85;17.65;;;;;;;11.49;100.00;101814.38;5271274;28;20024;-82
2022/03/15 10:04:23;;;;;;;30.83;17.50;;;;;;;11.75;100.00;101815.63;5266527;28;20028;-80
2022/03/15 10:06:54;;;;;;;30.45;17.42;;;;;;;11.94;100.00;101811.72;5259269;28;20409;-81
2022/03/15 10:09:26;;;;;;;30.73;18.27;;;;;;;12.02;100.00;101814.16;5255960;28;20036;-80
2022/03/15 10:11:57;;;;;;;33.08;18.20;;;;;;;12.00;100.00;101810.72;5278014;28;20031;-80
2022/03/15 10:14:27;;;;;;;34.05;18.67;;;;;;;12.18;100.00;101805.97;5270591;28;20032;-80
2022/03/15 10:17:03;;;;;;;30.27;17.75;;;;;;;12.24;100.00;101807.56;5265655;28;20082;-80
2022/03/15 10:19:34;;;;;;;30.27;18.08;;;;;;;12.20;100.00;101798.03;5252572;28;20538;-80
2022/03/15 10:22:08;;;;;;;31.77;17.77;;;;;;;12.21;100.00;101800.63;5278910;28;20028;-81
2022/03/15 10:24:39;;;;;;;33.53;18.30;;;;;;;12.25;100.00;101793.53;5275158;28;20110;-80
2022/03/15 10:27:10;;;;;;;34.08;18.27;;;;;;;12.14;100.00;101790.31;5268494;28;20450;-80
2022/03/15 10:29:42;;;;;;;33.53;17.25;;;;;;;11.96;100.00;101788.97;5254493;28;20596;-80
2022/03/15 10:32:14;;;;;;;29.60;17.42;;;;;;;12.26;100.00;101790.91;5269331;28;20020;-80
2022/03/15 10:34:44;;;;;;;32.13;17.75;;;;;;;12.27;100.00;101795.25;5258491;28;20024;-82
2022/03/15 10:37:15;;;;;;;30.95;17.55;;;;;;;12.17;100.00;101791.13;5261011;28;20096;-80
2022/03/15 10:39:48;;;;;;;29.55;17.55;;;;;;;12.04;100.00;101779.19;5279322;28;20575;-81
2022/03/15 10:42:22;;;;;;;31.75;17.08;;;;;;;11.97;99.04;101780.19;5260711;28;20027;-81
2022/03/15 10:44:53;;;;;;;29.33;16.45;;;;;;;11.99;100.00;101778.41;5273427;28;20035;-81
2022/03/15 10:47:23;;;;;;;32.40;17.30;;;;;;;12.11;100.00;101778.16;5252560;28;20031;-81
2022/03/15 10:49:59;;;;;;;29.00;17.65;;;;;;;12.06;99.54;101769.53;5279511;28;20019;-80
2022/03/15 10:52:35;;;;;;;29.48;17.02;;;;;;;11.96;100.00;101768.00;5258243;28;20028;-81
2022/03/15 10:55:25;;;;;;;;;;;;;;;11.88;97.77;101754.22;5279273;28;20023;-80
2022/03/15 10:57:58;;;;;;;34.75;17.02;;;;;;;12.06;100.00;101755.56;5252557;28;19911;-80
2022/03/15 11:00:40;;;;;;;28.55;16.02;;;;;;;12.25;100.00;101748.97;5264633;28;20024;-79
2022/03/15 11:03:13;;;;;;;28.70;16.17;;;;;;;12.20;96.96;101750.84;5249944;28;20042;-81
2022/03/15 11:05:43;;;;;;;29.23;16.13;;;;;;;12.19;94.29;101744.78;5263114;28;20551;-81
2022/03/15 11:08:15;;;;;;;27.65;16.17;;;;;;;12.21;96.81;101745.59;5259719;28;20115;-80
2022/03/15 11:10:48;;;;;;;27.30;15.40;;;;;;;12.08;92.22;101751.13;5259383;28;20031;-81
2022/03/15 11:13:28;;;;;;;26.00;14.15;;;;;;;11.98;91.44;101745.25;5248846;28;20024;-81
2022/03/15 11:15:59;;;;;;;26.90;14.40;;;;;;;12.12;91.58;101742.31;5271929;28;20012;-80
2022/03/15 11:18:32;;;;;;;25.90;15.30;;;;;;;12.18;93.23;101734.31;5261998;28;20027;-81
2022/03/15 11:21:04;;;;;;;28.25;14.80;;;;;;;12.36;93.12;101732.13;5271710;28;20023;-81
2022/03/15 11:23:39;;;;;;;27.38;14.93;;;;;;;12.44;93.96;101730.16;5268886;28;20528;-81
2022/03/15 11:26:09;;;;;;;27.58;14.18;;;;;;;12.11;90.89;101736.22;5247422;28;20027;-81
2022/03/15 11:28:44;;;;;;;26.77;14.27;;;;;;;12.16;92.54;101718.59;5273087;28;20033;-81